sensor_id;sensor_type;location;lat;lon;timestamp;pressure;altitude;pressure_sealevel;temperature;humidity
44920;BME280;30655;53.094;6.072;2022-08-05T00:01:11;101537.69;;;19.47;70.70
44920;BME280;30655;53.094;6.072;2022-08-05T00:04:31;101676.03;;;20.35;70.69
44920;BME280;30655;53.094;6.072;2022-08-05T00:07:20;101668.31;;;20.37;70.52
44920;BME280;30655;53.094;6.072;2022-08-05T00:10:26;101675.38;;;20.38;70.55
44920;BME280;30655;53.094;6.072;2022-08-05T00:13:23;101678.78;;;20.35;70.43
44920;BME280;30655;53.094;6.072;2022-08-05T00:16:23;101681.53;;;20.35;70.46
44920;BME280;30655;53.094;6.072;2022-08-05T00:19:13;101665.97;;;20.30;70.38
44920;BME280;30655;53.094;6.072;2022-08-05T00:25:18;101653.00;;;20.22;70.68
44920;BME280;30655;53.094;6.072;2022-08-05T00:28:41;101653.03;;;20.08;71.75
44920;BME280;30655;53.094;6.072;2022-08-05T00:31:33;101525.94;;;19.32;71.37
44920;BME280;30655;53.094;6.072;2022-08-05T00:34:14;101494.75;;;19.06;71.11
44920;BME280;30655;53.094;6.072;2022-08-05T00:37:13;101650.94;;;20.05;71.61
44920;BME280;30655;53.094;6.072;2022-08-05T00:43:21;101498.78;;;19.09;71.50
44920;BME280;30655;53.094;6.072;2022-08-05T00:47:00;101603.22;;;19.70;71.65
44920;BME280;30655;53.094;6.072;2022-08-05T00:50:16;101580.63;;;19.51;71.54
44920;BME280;30655;53.094;6.072;2022-08-05T00:53:02;101629.88;;;19.78;71.75
44920;BME280;30655;53.094;6.072;2022-08-05T00:56:11;101609.06;;;19.77;71.72
44920;BME280;30655;53.094;6.072;2022-08-05T00:59:28;101680.69;;;20.12;72.75
44920;BME280;30655;53.094;6.072;2022-08-05T01:02:22;101645.81;;;19.90;72.55
44920;BME280;30655;53.094;6.072;2022-08-05T01:05:12;101486.88;;;18.91;72.17
44920;BME280;30655;53.094;6.072;2022-08-05T01:08:05;101526.41;;;19.12;72.13
44920;BME280;30655;53.094;6.072;2022-08-05T01:11:40;101533.28;;;19.10;72.18
44920;BME280;30655;53.094;6.072;2022-08-05T01:14:40;101554.56;;;19.26;72.27
44920;BME280;30655;53.094;6.072;2022-08-05T01:17:35;101634.31;;;19.66;72.19
44920;BME280;30655;53.094;6.072;2022-08-05T01:20:36;101697.16;;;20.12;72.35
44920;BME280;30655;53.094;6.072;2022-08-05T01:23:48;101663.38;;;19.89;72.39
44920;BME280;30655;53.094;6.072;2022-08-05T01:27:02;101684.97;;;20.04;72.29
44920;BME280;30655;53.094;6.072;2022-08-05T01:30:29;101546.69;;;19.11;72.38
44920;BME280;30655;53.094;6.072;2022-08-05T01:33:08;101512.63;;;18.90;72.53
44920;BME280;30655;53.094;6.072;2022-08-05T01:36:16;101692.22;;;20.00;72.66
44920;BME280;30655;53.094;6.072;2022-08-05T01:39:00;101525.59;;;18.98;72.36
44920;BME280;30655;53.094;6.072;2022-08-05T01:41:48;101665.94;;;19.86;72.70
44920;BME280;30655;53.094;6.072;2022-08-05T01:44:31;101681.75;;;20.02;72.92
44920;BME280;30655;53.094;6.072;2022-08-05T01:50:44;101588.63;;;19.48;72.75
44920;BME280;30655;53.094;6.072;2022-08-05T01:53:40;101675.63;;;20.05;72.75
44920;BME280;30655;53.094;6.072;2022-08-05T02:00:19;101626.56;;;19.68;72.96
44920;BME280;30655;53.094;6.072;2022-08-05T02:03:24;101603.75;;;19.59;73.17
44920;BME280;30655;53.094;6.072;2022-08-05T02:06:23;101660.63;;;19.89;73.17
44920;BME280;30655;53.094;6.072;2022-08-05T02:09:17;101551.44;;;19.19;73.15
44920;BME280;30655;53.094;6.072;2022-08-05T02:12:00;101673.63;;;19.97;73.28
44920;BME280;30655;53.094;6.072;2022-08-05T02:22:00;101666.19;;;19.75;73.65
44920;BME280;30655;53.094;6.072;2022-08-05T02:25:04;101633.22;;;19.53;73.99
44920;BME280;30655;53.094;6.072;2022-08-05T02:34:19;101594.69;;;19.09;74.11
44920;BME280;30655;53.094;6.072;2022-08-05T02:37:18;101512.56;;;18.54;74.13
44920;BME280;30655;53.094;6.072;2022-08-05T02:40:11;101555.66;;;18.76;74.43
44920;BME280;30655;53.094;6.072;2022-08-05T02:43:14;101625.53;;;19.14;74.39
44920;BME280;30655;53.094;6.072;2022-08-05T02:45:56;101695.78;;;19.51;74.65
44920;BME280;30655;53.094;6.072;2022-08-05T02:48:43;101712.25;;;19.51;74.54
44920;BME280;30655;53.094;6.072;2022-08-05T02:52:00;101706.25;;;19.49;74.38
44920;BME280;30655;53.094;6.072;2022-08-05T02:55:04;101696.72;;;19.47;74.71
44920;BME280;30655;53.094;6.072;2022-08-05T02:57:57;101666.94;;;19.26;74.72
44920;BME280;30655;53.094;6.072;2022-08-05T03:01:06;101678.41;;;19.42;74.65
44920;BME280;30655;53.094;6.072;2022-08-05T03:04:13;101528.44;;;18.38;74.98
44920;BME280;30655;53.094;6.072;2022-08-05T03:07:29;101533.13;;;18.38;75.04
44920;BME280;30655;53.094;6.072;2022-08-05T03:10:20;101694.25;;;19.31;75.17
44920;BME280;30655;53.094;6.072;2022-08-05T03:13:35;101669.38;;;19.14;74.90
44920;BME280;30655;53.094;6.072;2022-08-05T03:17:10;101536.25;;;18.31;74.92
44920;BME280;30655;53.094;6.072;2022-08-05T03:20:12;101590.56;;;18.57;74.96
44920;BME280;30655;53.094;6.072;2022-08-05T03:23:43;101700.75;;;19.35;75.42
44920;BME280;30655;53.094;6.072;2022-08-05T03:29:42;101697.50;;;19.33;75.36
44920;BME280;30655;53.094;6.072;2022-08-05T03:32:45;101557.34;;;18.44;74.96
44920;BME280;30655;53.094;6.072;2022-08-05T03:35:21;101652.03;;;19.19;75.13
44920;BME280;30655;53.094;6.072;2022-08-05T03:45:40;101679.75;;;19.31;75.62
44920;BME280;30655;53.094;6.072;2022-08-05T03:48:58;101504.19;;;18.18;76.22
44920;BME280;30655;53.094;6.072;2022-08-05T03:58:48;101513.63;;;18.12;76.15
44920;BME280;30655;53.094;6.072;2022-08-05T04:01:56;101658.03;;;19.07;76.86
44920;BME280;30655;53.094;6.072;2022-08-05T04:14:08;101566.06;;;18.46;76.78
44920;BME280;30655;53.094;6.072;2022-08-05T04:17:13;101630.53;;;18.85;76.63
44920;BME280;30655;53.094;6.072;2022-08-05T04:20:05;101536.53;;;18.16;76.82
44920;BME280;30655;53.094;6.072;2022-08-05T04:23:16;101642.69;;;18.79;76.96
44920;BME280;30655;53.094;6.072;2022-08-05T04:26:39;101515.84;;;17.96;77.11
44920;BME280;30655;53.094;6.072;2022-08-05T04:30:05;101530.91;;;17.94;77.52
44920;BME280;30655;53.094;6.072;2022-08-05T04:33:27;101573.31;;;18.10;77.96
44920;BME280;30655;53.094;6.072;2022-08-05T04:36:33;101650.00;;;18.70;77.44
44920;BME280;30655;53.094;6.072;2022-08-05T04:46:44;101574.81;;;18.02;77.86
44920;BME280;30655;53.094;6.072;2022-08-05T05:04:06;101716.97;;;18.77;79.49
44920;BME280;30655;53.094;6.072;2022-08-05T05:10:09;101714.41;;;18.81;78.96
44920;BME280;30655;53.094;6.072;2022-08-05T05:13:13;101673.50;;;18.57;78.88
44920;BME280;30655;53.094;6.072;2022-08-05T05:16:36;101548.78;;;17.73;78.73
44920;BME280;30655;53.094;6.072;2022-08-05T05:19:48;101644.66;;;18.46;78.94
44920;BME280;30655;53.094;6.072;2022-08-05T05:22:43;101549.53;;;17.78;78.74
44920;BME280;30655;53.094;6.072;2022-08-05T05:25:44;101583.69;;;17.94;78.74
44920;BME280;30655;53.094;6.072;2022-08-05T05:28:43;101677.13;;;18.53;78.83
44920;BME280;30655;53.094;6.072;2022-08-05T05:31:31;101667.28;;;18.52;78.73
44920;BME280;30655;53.094;6.072;2022-08-05T05:34:04;101708.50;;;18.74;78.72
44920;BME280;30655;53.094;6.072;2022-08-05T05:36:51;101706.38;;;18.71;78.54
44920;BME280;30655;53.094;6.072;2022-08-05T05:40:01;101714.59;;;18.71;78.66
44920;BME280;30655;53.094;6.072;2022-08-05T05:42:50;101721.72;;;18.72;78.66
44920;BME280;30655;53.094;6.072;2022-08-05T05:45:55;101538.97;;;17.72;78.53
44920;BME280;30655;53.094;6.072;2022-08-05T05:48:56;101554.19;;;17.78;78.53
44920;BME280;30655;53.094;6.072;2022-08-05T06:10:59;101540.25;;;17.93;78.56
44920;BME280;30655;53.094;6.072;2022-08-05T06:32:02;101710.91;;;19.08;77.43
44920;BME280;30655;53.094;6.072;2022-08-05T06:35:55;101705.72;;;19.06;77.74
44920;BME280;30655;53.094;6.072;2022-08-05T06:42:36;101709.88;;;19.04;78.29
44920;BME280;30655;53.094;6.072;2022-08-05T06:55:12;101595.44;;;18.27;77.70
44920;BME280;30655;53.094;6.072;2022-08-05T06:55:59;101625.03;;;18.58;77.22
44920;BME280;30655;53.094;6.072;2022-08-05T07:02:05;101716.97;;;19.18;74.76
44920;BME280;30655;53.094;6.072;2022-08-05T07:04:56;101724.81;;;19.25;75.42
44920;BME280;30655;53.094;6.072;2022-08-05T07:07:59;101739.94;;;19.36;75.09
44920;BME280;30655;53.094;6.072;2022-08-05T07:10:59;101684.81;;;19.24;74.92
44920;BME280;30655;53.094;6.072;2022-08-05T07:13:59;101569.47;;;18.57;74.65
44920;BME280;30655;53.094;6.072;2022-08-05T07:17:07;101736.28;;;19.68;74.43
44920;BME280;30655;53.094;6.072;2022-08-05T07:20:20;101574.84;;;18.76;73.66
44920;BME280;30655;53.094;6.072;2022-08-05T07:23:48;101670.28;;;19.37;73.14
44920;BME280;30655;53.094;6.072;2022-08-05T07:27:07;101691.00;;;19.57;69.92
44920;BME280;30655;53.094;6.072;2022-08-05T07:30:41;101705.31;;;19.67;69.88
44920;BME280;30655;53.094;6.072;2022-08-05T07:34:15;101752.25;;;20.15;70.19
44920;BME280;30655;53.094;6.072;2022-08-05T07:37:01;101659.81;;;19.66;70.10
44920;BME280;30655;53.094;6.072;2022-08-05T07:54:45;101611.16;;;18.95;71.27
44920;BME280;30655;53.094;6.072;2022-08-05T08:57:19;101718.47;;;19.79;63.52
44920;BME280;30655;53.094;6.072;2022-08-05T09:03:58;101811.38;;;20.57;63.17
44920;BME280;30655;53.094;6.072;2022-08-05T09:35:16;101680.66;;;20.87;50.46
44920;BME280;30655;53.094;6.072;2022-08-05T09:37:59;101798.66;;;21.85;50.84
44920;BME280;30655;53.094;6.072;2022-08-05T09:40:55;101830.19;;;22.36;48.52
44920;BME280;30655;53.094;6.072;2022-08-05T09:46:44;101679.97;;;22.38;46.95
44920;BME280;30655;53.094;6.072;2022-08-05T09:49:26;101827.50;;;23.72;45.62
44920;BME280;30655;53.094;6.072;2022-08-05T09:52:30;101763.34;;;23.75;44.05
44920;BME280;30655;53.094;6.072;2022-08-05T09:55:34;101805.13;;;24.23;42.38
44920;BME280;30655;53.094;6.072;2022-08-05T10:02:56;101835.63;;;25.34;40.24
44920;BME280;30655;53.094;6.072;2022-08-05T10:19:20;101845.88;;;26.43;35.83
44920;BME280;30655;53.094;6.072;2022-08-05T10:22:24;101816.34;;;26.35;33.50
44920;BME280;30655;53.094;6.072;2022-08-05T10:34:23;101741.06;;;25.56;32.25
44920;BME280;30655;53.094;6.072;2022-08-05T10:37:24;101713.84;;;25.46;34.60
44920;BME280;30655;53.094;6.072;2022-08-05T10:40:24;101819.38;;;26.30;32.79
44920;BME280;30655;53.094;6.072;2022-08-05T10:47:48;101866.44;;;26.82;32.69
44920;BME280;30655;53.094;6.072;2022-08-05T10:51:58;101866.50;;;26.85;33.41
44920;BME280;30655;53.094;6.072;2022-08-05T10:57:29;101880.78;;;25.71;34.38
44920;BME280;30655;53.094;6.072;2022-08-05T11:00:47;101745.47;;;24.22;36.41
44920;BME280;30655;53.094;6.072;2022-08-05T11:03:34;101898.44;;;24.89;37.01
44920;BME280;30655;53.094;6.072;2022-08-05T11:07:11;101910.81;;;25.03;36.12
44920;BME280;30655;53.094;6.072;2022-08-05T11:31:28;101870.59;;;25.06;35.22
44920;BME280;30655;53.094;6.072;2022-08-05T11:44:49;101845.09;;;22.52;40.47
44920;BME280;30655;53.094;6.072;2022-08-05T11:51:24;101916.75;;;22.60;41.05
44920;BME280;30655;53.094;6.072;2022-08-05T11:54:31;101951.28;;;22.66;42.36
44920;BME280;30655;53.094;6.072;2022-08-05T12:14:55;101994.13;;;23.07;41.95
44920;BME280;30655;53.094;6.072;2022-08-05T12:24:33;102016.91;;;24.49;40.71
44920;BME280;30655;53.094;6.072;2022-08-05T12:27:41;102025.59;;;24.68;38.76
44920;BME280;30655;53.094;6.072;2022-08-05T12:34:21;102029.47;;;24.67;39.31
44920;BME280;30655;53.094;6.072;2022-08-05T12:37:23;102007.34;;;25.17;39.66
44920;BME280;30655;53.094;6.072;2022-08-05T12:40:55;102053.69;;;25.41;37.80
44920;BME280;30655;53.094;6.072;2022-08-05T12:43:29;101982.66;;;24.91;38.13
44920;BME280;30655;53.094;6.072;2022-08-05T12:49:46;102058.81;;;24.59;38.98
44920;BME280;30655;53.094;6.072;2022-08-05T12:52:57;101925.03;;;23.29;38.88
44920;BME280;30655;53.094;6.072;2022-08-05T12:59:44;101912.72;;;22.66;39.93
44920;BME280;30655;53.094;6.072;2022-08-05T13:03:31;101927.34;;;22.76;39.85
44920;BME280;30655;53.094;6.072;2022-08-05T13:10:25;102073.34;;;23.15;41.81
44920;BME280;30655;53.094;6.072;2022-08-05T13:13:26;102029.38;;;22.53;41.57
44920;BME280;30655;53.094;6.072;2022-08-05T13:18:30;102058.06;;;22.52;41.47
44920;BME280;30655;53.094;6.072;2022-08-05T13:42:44;102122.78;;;23.03;46.23
44920;BME280;30655;53.094;6.072;2022-08-05T13:49:49;102112.63;;;23.98;42.68
44920;BME280;30655;53.094;6.072;2022-08-05T13:53:09;102120.56;;;24.25;42.48
44920;BME280;30655;53.094;6.072;2022-08-05T14:09:32;102018.59;;;23.77;39.76
44920;BME280;30655;53.094;6.072;2022-08-05T14:13:38;102086.28;;;24.09;40.51
44920;BME280;30655;53.094;6.072;2022-08-05T14:16:46;101977.56;;;23.41;39.67
44920;BME280;30655;53.094;6.072;2022-08-05T14:20:22;102013.25;;;23.81;39.90
44920;BME280;30655;53.094;6.072;2022-08-05T14:23:01;102142.28;;;24.82;39.41
44920;BME280;30655;53.094;6.072;2022-08-05T14:25:57;102147.22;;;24.68;39.50
44920;BME280;30655;53.094;6.072;2022-08-05T14:29:12;102004.97;;;23.81;39.82
44920;BME280;30655;53.094;6.072;2022-08-05T14:32:22;102157.59;;;24.88;39.39
44920;BME280;30655;53.094;6.072;2022-08-05T14:38:32;102154.63;;;24.55;39.39
44920;BME280;30655;53.094;6.072;2022-08-05T14:41:26;102084.34;;;24.01;39.94
44920;BME280;30655;53.094;6.072;2022-08-05T14:44:31;102174.19;;;24.16;40.26
44920;BME280;30655;53.094;6.072;2022-08-05T14:47:08;102140.88;;;23.86;40.27
44920;BME280;30655;53.094;6.072;2022-08-05T14:50:13;102152.44;;;23.71;40.95
44920;BME280;30655;53.094;6.072;2022-08-05T15:03:30;102096.03;;;24.07;38.60
44920;BME280;30655;53.094;6.072;2022-08-05T15:10:25;102179.22;;;23.96;39.50
44920;BME280;30655;53.094;6.072;2022-08-05T15:13:31;102068.94;;;23.23;39.75
44920;BME280;30655;53.094;6.072;2022-08-05T15:20:31;102035.81;;;22.80;39.73
44920;BME280;30655;53.094;6.072;2022-08-05T15:29:38;102133.56;;;23.30;39.28
44920;BME280;30655;53.094;6.072;2022-08-05T15:32:58;102187.38;;;23.76;39.66
44920;BME280;30655;53.094;6.072;2022-08-05T15:36:10;102043.16;;;22.53;38.90
44920;BME280;30655;53.094;6.072;2022-08-05T15:38:56;102169.88;;;23.15;38.96
44920;BME280;30655;53.094;6.072;2022-08-05T15:41:45;102059.34;;;22.46;39.87
44920;BME280;30655;53.094;6.072;2022-08-05T15:44:46;102151.69;;;23.14;39.04
44920;BME280;30655;53.094;6.072;2022-08-05T15:47:53;102055.81;;;22.54;40.40
44920;BME280;30655;53.094;6.072;2022-08-05T15:50:38;102193.44;;;23.38;39.28
44920;BME280;30655;53.094;6.072;2022-08-05T15:53:26;102161.47;;;22.81;40.42
44920;BME280;30655;53.094;6.072;2022-08-05T15:56:31;102203.56;;;23.03;40.10
44920;BME280;30655;53.094;6.072;2022-08-05T15:59:07;102165.69;;;22.87;39.41
44920;BME280;30655;53.094;6.072;2022-08-05T16:02:13;102043.69;;;21.94;39.08
44920;BME280;30655;53.094;6.072;2022-08-05T16:05:24;102043.84;;;21.66;38.89
44920;BME280;30655;53.094;6.072;2022-08-05T16:08:30;102118.28;;;22.06;39.26
44920;BME280;30655;53.094;6.072;2022-08-05T16:15:12;102212.56;;;22.56;40.37
44920;BME280;30655;53.094;6.072;2022-08-05T16:18:03;102190.34;;;22.30;41.01
44920;BME280;30655;53.094;6.072;2022-08-05T16:21:38;102159.50;;;21.97;41.90
44920;BME280;30655;53.094;6.072;2022-08-05T16:24:21;102217.09;;;22.29;42.53
44920;BME280;30655;53.094;6.072;2022-08-05T16:33:46;102062.53;;;21.06;42.86
44920;BME280;30655;53.094;6.072;2022-08-05T16:36:58;102091.03;;;21.24;42.94
44920;BME280;30655;53.094;6.072;2022-08-05T16:49:02;102236.06;;;22.31;43.26
44920;BME280;30655;53.094;6.072;2022-08-05T16:54:57;102206.84;;;21.85;42.14
44920;BME280;30655;53.094;6.072;2022-08-05T17:01:10;102168.44;;;21.31;43.26
44920;BME280;30655;53.094;6.072;2022-08-05T17:04:19;102206.50;;;21.51;43.11
44920;BME280;30655;53.094;6.072;2022-08-05T17:10:48;102256.97;;;21.46;43.92
44920;BME280;30655;53.094;6.072;2022-08-05T17:20:27;102207.09;;;20.66;44.88
44920;BME280;30655;53.094;6.072;2022-08-05T17:23:13;102099.16;;;19.87;44.79
44920;BME280;30655;53.094;6.072;2022-08-05T17:26:05;102271.03;;;20.85;45.66
44920;BME280;30655;53.094;6.072;2022-08-05T17:31:54;102237.41;;;20.61;46.12
44920;BME280;30655;53.094;6.072;2022-08-05T17:34:41;102194.94;;;20.21;46.96
44920;BME280;30655;53.094;6.072;2022-08-05T17:40:44;102132.91;;;19.69;46.87
44920;BME280;30655;53.094;6.072;2022-08-05T17:43:25;102280.41;;;20.52;46.60
44920;BME280;30655;53.094;6.072;2022-08-05T17:46:27;102256.56;;;20.29;46.86
44920;BME280;30655;53.094;6.072;2022-08-05T17:49:20;102133.31;;;19.39;47.18
44920;BME280;30655;53.094;6.072;2022-08-05T17:59:25;102261.47;;;19.94;47.85
44920;BME280;30655;53.094;6.072;2022-08-05T18:02:45;102144.31;;;19.15;48.25
44920;BME280;30655;53.094;6.072;2022-08-05T18:09:12;102263.25;;;19.85;48.89
44920;BME280;30655;53.094;6.072;2022-08-05T18:12:18;102316.09;;;19.96;49.67
44920;BME280;30655;53.094;6.072;2022-08-05T18:18:18;102321.16;;;19.84;49.91
44920;BME280;30655;53.094;6.072;2022-08-05T18:21:18;102338.56;;;19.74;50.69
44920;BME280;30655;53.094;6.072;2022-08-05T18:24:23;102301.09;;;19.41;50.11
44920;BME280;30655;53.094;6.072;2022-08-05T18:27:06;102176.13;;;18.63;50.03
44920;BME280;30655;53.094;6.072;2022-08-05T18:36:29;102296.31;;;19.27;50.80
44920;BME280;30655;53.094;6.072;2022-08-05T18:39:19;102298.00;;;19.23;50.32
44920;BME280;30655;53.094;6.072;2022-08-05T18:42:09;102168.44;;;18.36;50.51
44920;BME280;30655;53.094;6.072;2022-08-05T18:48:25;102258.13;;;18.83;51.21
44920;BME280;30655;53.094;6.072;2022-08-05T18:51:35;102283.44;;;18.99;51.56
44920;BME280;30655;53.094;6.072;2022-08-05T18:54:22;102206.19;;;18.39;50.79
44920;BME280;30655;53.094;6.072;2022-08-05T18:58:02;102187.69;;;18.26;51.14
44920;BME280;30655;53.094;6.072;2022-08-05T19:00:29;102319.84;;;19.05;50.81
44920;BME280;30655;53.094;6.072;2022-08-05T19:03:14;102295.38;;;18.84;51.13
44920;BME280;30655;53.094;6.072;2022-08-05T19:06:23;102289.69;;;18.76;51.52
44920;BME280;30655;53.094;6.072;2022-08-05T19:12:11;102359.03;;;19.05;51.68
44920;BME280;30655;53.094;6.072;2022-08-05T19:14:45;102206.78;;;18.02;51.87
44920;BME280;30655;53.094;6.072;2022-08-05T19:17:34;102266.25;;;18.26;52.03
44920;BME280;30655;53.094;6.072;2022-08-05T19:20:31;102326.53;;;18.60;52.40
44920;BME280;30655;53.094;6.072;2022-08-05T19:26:46;102307.53;;;18.29;52.35
44920;BME280;30655;53.094;6.072;2022-08-05T19:29:29;102199.63;;;17.62;52.39
44920;BME280;30655;53.094;6.072;2022-08-05T19:32:09;102341.97;;;18.40;52.76
44920;BME280;30655;53.094;6.072;2022-08-05T19:34:52;102235.16;;;17.68;52.87
44920;BME280;30655;53.094;6.072;2022-08-05T19:37:35;102315.53;;;18.21;52.82
44920;BME280;30655;53.094;6.072;2022-08-05T19:40:32;102397.44;;;18.61;53.02
44920;BME280;30655;53.094;6.072;2022-08-05T19:43:26;102399.41;;;18.56;53.49
44920;BME280;30655;53.094;6.072;2022-08-05T19:46:23;102284.84;;;17.80;53.05
44920;BME280;30655;53.094;6.072;2022-08-05T19:49:04;102230.28;;;17.44;53.67
44920;BME280;30655;53.094;6.072;2022-08-05T19:51:46;102286.50;;;17.76;53.43
44920;BME280;30655;53.094;6.072;2022-08-05T19:54:41;102405.50;;;18.37;53.96
44920;BME280;30655;53.094;6.072;2022-08-05T19:57:50;102236.16;;;17.12;53.89
44920;BME280;30655;53.094;6.072;2022-08-05T20:00:50;102333.03;;;17.71;54.34
44920;BME280;30655;53.094;6.072;2022-08-05T20:03:53;102251.22;;;16.95;54.55
44920;BME280;30655;53.094;6.072;2022-08-05T20:06:38;102316.72;;;17.30;55.01
44920;BME280;30655;53.094;6.072;2022-08-05T20:09:44;102262.47;;;16.73;55.95
44920;BME280;30655;53.094;6.072;2022-08-05T20:12:22;102261.09;;;16.65;56.32
44920;BME280;30655;53.094;6.072;2022-08-05T20:14:53;102288.38;;;16.65;56.64
44920;BME280;30655;53.094;6.072;2022-08-05T20:17:27;102314.59;;;16.82;57.00
44920;BME280;30655;53.094;6.072;2022-08-05T20:20:11;102403.63;;;17.33;57.15
44920;BME280;30655;53.094;6.072;2022-08-05T20:22:44;102320.06;;;16.61;57.37
44920;BME280;30655;53.094;6.072;2022-08-05T20:25:24;102442.16;;;17.37;57.80
44920;BME280;30655;53.094;6.072;2022-08-05T20:28:36;102263.19;;;16.03;57.90
44920;BME280;30655;53.094;6.072;2022-08-05T20:31:06;102289.69;;;16.17;58.31
44920;BME280;30655;53.094;6.072;2022-08-05T20:34:09;102411.84;;;16.93;58.32
44920;BME280;30655;53.094;6.072;2022-08-05T20:36:42;102350.03;;;16.51;58.53
44920;BME280;30655;53.094;6.072;2022-08-05T20:39:25;102359.31;;;16.45;59.05
44920;BME280;30655;53.094;6.072;2022-08-05T20:42:07;102386.66;;;16.60;59.22
44920;BME280;30655;53.094;6.072;2022-08-05T20:44:46;102299.16;;;15.94;59.23
44920;BME280;30655;53.094;6.072;2022-08-05T20:47:28;102293.97;;;15.83;59.58
44920;BME280;30655;53.094;6.072;2022-08-05T20:50:01;102405.69;;;16.40;60.00
44920;BME280;30655;53.094;6.072;2022-08-05T20:55:20;102410.03;;;16.36;60.46
44920;BME280;30655;53.094;6.072;2022-08-05T20:58:26;102350.44;;;15.92;60.57
44920;BME280;30655;53.094;6.072;2022-08-05T21:01:07;102485.81;;;16.76;60.62
44920;BME280;30655;53.094;6.072;2022-08-05T21:03:39;102439.03;;;16.52;60.66
44920;BME280;30655;53.094;6.072;2022-08-05T21:06:16;102364.31;;;15.91;60.70
44920;BME280;30655;53.094;6.072;2022-08-05T21:09:03;102330.16;;;15.68;61.09
44920;BME280;30655;53.094;6.072;2022-08-05T21:11:53;102327.69;;;15.67;61.10
44920;BME280;30655;53.094;6.072;2022-08-05T21:14:45;102449.91;;;16.42;61.17
44920;BME280;30655;53.094;6.072;2022-08-05T21:17:24;102454.28;;;16.43;61.38
44920;BME280;30655;53.094;6.072;2022-08-05T21:19:54;102505.72;;;16.71;61.42
44920;BME280;30655;53.094;6.072;2022-08-05T21:22:35;102496.41;;;16.62;63.41
44920;BME280;30655;53.094;6.072;2022-08-05T21:25:10;102383.69;;;15.94;61.34
44920;BME280;30655;53.094;6.072;2022-08-05T21:27:40;102320.78;;;15.49;61.41
44920;BME280;30655;53.094;6.072;2022-08-05T21:30:20;102361.47;;;15.66;61.59
44920;BME280;30655;53.094;6.072;2022-08-05T21:33:07;102326.41;;;15.37;62.02
44920;BME280;30655;53.094;6.072;2022-08-05T21:36:01;102516.31;;;16.58;62.19
44920;BME280;30655;53.094;6.072;2022-08-05T21:38:34;102461.78;;;16.11;62.25
44920;BME280;30655;53.094;6.072;2022-08-05T21:44:27;102512.72;;;16.47;62.62
44920;BME280;30655;53.094;6.072;2022-08-05T21:47:05;102400.78;;;15.75;62.71
44920;BME280;30655;53.094;6.072;2022-08-05T21:50:09;102514.88;;;16.45;62.88
44920;BME280;30655;53.094;6.072;2022-08-05T21:52:47;102519.25;;;16.46;63.07
44920;BME280;30655;53.094;6.072;2022-08-05T21:55:27;102531.81;;;16.47;62.81
44920;BME280;30655;53.094;6.072;2022-08-05T21:58:28;102351.75;;;15.38;63.46
44920;BME280;30655;53.094;6.072;2022-08-05T22:01:18;102417.66;;;15.72;63.81
44920;BME280;30655;53.094;6.072;2022-08-05T22:06:53;102515.94;;;16.44;64.13
44920;BME280;30655;53.094;6.072;2022-08-05T22:09:50;102377.44;;;15.47;63.64
44920;BME280;30655;53.094;6.072;2022-08-05T22:12:55;102410.31;;;15.72;63.89
44920;BME280;30655;53.094;6.072;2022-08-05T22:16:15;102523.59;;;16.42;63.81
44920;BME280;30655;53.094;6.072;2022-08-05T22:22:12;102341.34;;;15.30;63.65
44920;BME280;30655;53.094;6.072;2022-08-05T22:24:57;102455.72;;;15.99;63.64
44920;BME280;30655;53.094;6.072;2022-08-05T22:31:05;102367.22;;;15.27;63.43
44920;BME280;30655;53.094;6.072;2022-08-05T22:33:43;102483.56;;;16.06;63.76
44920;BME280;30655;53.094;6.072;2022-08-05T22:36:39;102461.38;;;15.87;63.59
44920;BME280;30655;53.094;6.072;2022-08-05T22:39:18;102491.72;;;16.01;63.74
44920;BME280;30655;53.094;6.072;2022-08-05T22:42:04;102507.00;;;16.02;64.13
44920;BME280;30655;53.094;6.072;2022-08-05T22:44:54;102361.03;;;15.05;63.97
44920;BME280;30655;53.094;6.072;2022-08-05T22:50:57;102481.69;;;15.69;64.10
44920;BME280;30655;53.094;6.072;2022-08-05T22:53:34;102380.97;;;15.11;64.06
44920;BME280;30655;53.094;6.072;2022-08-05T22:56:45;102460.53;;;15.49;64.29
44920;BME280;30655;53.094;6.072;2022-08-05T22:59:30;102560.81;;;16.11;64.38
44920;BME280;30655;53.094;6.072;2022-08-05T23:08:55;102537.38;;;15.73;64.39
44920;BME280;30655;53.094;6.072;2022-08-05T23:15:07;102382.88;;;14.78;64.44
44920;BME280;30655;53.094;6.072;2022-08-05T23:17:58;102521.22;;;15.67;64.41
44920;BME280;30655;53.094;6.072;2022-08-05T23:20:39;102394.06;;;14.82;64.25
44920;BME280;30655;53.094;6.072;2022-08-05T23:23:29;102568.59;;;15.92;64.56
44920;BME280;30655;53.094;6.072;2022-08-05T23:26:09;102428.25;;;14.99;64.45
44920;BME280;30655;53.094;6.072;2022-08-05T23:28:40;102573.22;;;15.92;64.74
44920;BME280;30655;53.094;6.072;2022-08-05T23:34:05;102380.31;;;14.67;64.57
44920;BME280;30655;53.094;6.072;2022-08-05T23:36:39;102400.88;;;14.79;64.74
44920;BME280;30655;53.094;6.072;2022-08-05T23:39:13;102577.56;;;15.88;64.72
44920;BME280;30655;53.094;6.072;2022-08-05T23:42:14;102582.19;;;15.87;64.78
44920;BME280;30655;53.094;6.072;2022-08-05T23:44:57;102536.13;;;15.59;64.77
44920;BME280;30655;53.094;6.072;2022-08-05T23:47:28;102480.75;;;15.22;64.49
44920;BME280;30655;53.094;6.072;2022-08-05T23:50:29;102394.19;;;14.65;64.65
44920;BME280;30655;53.094;6.072;2022-08-05T23:53:16;102515.69;;;15.30;64.79
44920;BME280;30655;53.094;6.072;2022-08-05T23:56:15;102579.91;;;15.79;65.03
